createdAt,value
2022-11-12T00:01:23.163Z,71.91
2022-11-12T00:03:52.178Z,71.90
2022-11-12T00:06:20.247Z,72.16
2022-11-12T00:08:48.258Z,71.98
2022-11-12T00:11:16.812Z,71.91
2022-11-12T00:13:45.009Z,71.55
2022-11-12T00:16:13.084Z,71.46
2022-11-12T00:18:41.133Z,71.60
2022-11-12T00:21:09.226Z,71.77
2022-11-12T00:23:37.280Z,71.65
2022-11-12T00:26:05.944Z,71.61
2022-11-12T00:28:38.270Z,71.56
2022-11-12T00:31:08.744Z,71.46
2022-11-12T00:33:41.265Z,71.77
2022-11-12T00:36:11.032Z,72.02
2022-11-12T00:38:39.655Z,72.22
2022-11-12T00:41:08.411Z,71.75
2022-11-12T00:43:36.916Z,71.88
2022-11-12T00:46:05.180Z,71.97
2022-11-12T00:48:33.779Z,72.17
2022-11-12T00:51:04.257Z,72.19
2022-11-12T00:53:33.392Z,72.21
2022-11-12T00:56:04.950Z,72.31
2022-11-12T00:58:35.403Z,72.42
2022-11-12T01:01:14.567Z,72.30
2022-11-12T01:03:43.739Z,72.64
2022-11-12T01:06:17.786Z,72.88
2022-11-12T01:08:46.289Z,72.82
2022-11-12T01:11:19.007Z,72.83
2022-11-12T01:13:53.878Z,72.94
2022-11-12T01:16:25.590Z,72.65
2022-11-12T01:18:59.963Z,73.30
2022-11-12T01:21:30.508Z,73.15
2022-11-12T01:24:00.539Z,73.27
2022-11-12T01:26:29.146Z,73.47
2022-11-12T01:28:58.140Z,73.32
2022-11-12T01:31:28.563Z,73.44
2022-11-12T01:34:00.098Z,73.39
2022-11-12T01:36:31.511Z,73.95
2022-11-12T01:38:59.883Z,74.20
2022-11-12T01:41:31.583Z,74.19
2022-11-12T01:44:09.913Z,74.70
2022-11-12T01:46:49.593Z,75.26
2022-11-12T01:49:24.438Z,75.24
2022-11-12T01:51:55.732Z,75.95
2022-11-12T01:54:24.517Z,76.11
2022-11-12T01:56:52.951Z,76.64
2022-11-12T01:59:27.893Z,76.87
2022-11-12T02:01:56.791Z,76.93
2022-11-12T02:04:26.799Z,77.50
2022-11-12T02:06:57.513Z,77.42
2022-11-12T02:09:26.687Z,77.71
2022-11-12T02:11:54.799Z,78.34
2022-11-12T02:14:23.320Z,78.35
2022-11-12T02:16:51.752Z,78.85
2022-11-12T02:19:20.712Z,78.59
2022-11-12T02:21:48.783Z,79.04
2022-11-12T02:24:16.788Z,78.80
2022-11-12T02:26:49.594Z,78.89
2022-11-12T02:29:17.691Z,78.98
2022-11-12T02:31:45.831Z,78.64
2022-11-12T02:34:14.444Z,78.77
2022-11-12T02:36:42.527Z,78.88
2022-11-12T02:39:10.594Z,78.85
2022-11-12T02:41:38.661Z,79.02
2022-11-12T02:44:07.221Z,79.03
2022-11-12T02:46:35.803Z,78.76
2022-11-12T02:49:03.950Z,78.93
2022-11-12T02:51:33.132Z,78.79
2022-11-12T02:54:01.182Z,78.74
2022-11-12T02:56:29.313Z,78.52
2022-11-12T02:58:57.419Z,78.93
2022-11-12T03:01:25.530Z,78.97
2022-11-12T03:03:53.691Z,79.25
2022-11-12T03:06:21.758Z,79.11
2022-11-12T03:08:50.187Z,78.95
2022-11-12T03:11:18.349Z,79.15
2022-11-12T03:13:46.431Z,79.02
2022-11-12T03:16:14.663Z,79.19
2022-11-12T03:18:42.834Z,78.84
2022-11-12T03:21:11.414Z,79.57
2022-11-12T03:23:39.654Z,79.73
2022-11-12T03:26:07.760Z,79.56
2022-11-12T03:28:35.913Z,79.61
2022-11-12T03:31:03.945Z,79.92
2022-11-12T03:33:32.011Z,80.05
2022-11-12T03:36:00.172Z,80.32
2022-11-12T03:38:28.929Z,80.50
2022-11-12T03:40:57.347Z,80.05
2022-11-12T03:43:25.392Z,80.64
2022-11-12T03:45:53.576Z,80.74
2022-11-12T03:48:21.633Z,80.83
2022-11-12T03:50:49.935Z,80.79
2022-11-12T03:53:18.503Z,80.30
2022-11-12T03:55:46.582Z,80.43
2022-11-12T03:58:14.890Z,80.33
2022-11-12T04:00:42.944Z,80.19
2022-11-12T04:03:11.108Z,80.06
2022-11-12T04:05:58.009Z,79.96
2022-11-12T04:08:38.838Z,79.63
2022-11-12T04:11:14.904Z,79.51
2022-11-12T04:13:47.725Z,79.56
2022-11-12T04:16:37.908Z,79.15
2022-11-12T04:19:25.811Z,78.82
2022-11-12T04:22:02.743Z,78.66
2022-11-12T04:24:51.566Z,78.51
2022-11-12T04:27:29.119Z,78.39
2022-11-12T04:30:16.321Z,78.12
2022-11-12T04:32:54.857Z,78.15
2022-11-12T04:35:25.366Z,77.86
2022-11-12T04:37:53.639Z,77.77
2022-11-12T04:40:44.636Z,77.52
2022-11-12T04:43:36.292Z,76.96
2022-11-12T04:46:05.304Z,77.02
2022-11-12T04:48:33.324Z,77.12
2022-11-12T04:51:24.394Z,77.02
2022-11-12T04:53:52.394Z,76.61
2022-11-12T04:56:20.986Z,76.54
2022-11-12T04:58:49.545Z,76.77
2022-11-12T05:01:17.970Z,76.62
2022-11-12T05:03:46.025Z,76.14
2022-11-12T05:06:32.869Z,76.18
2022-11-12T05:09:02.427Z,76.41
2022-11-12T05:11:30.388Z,76.26
2022-11-12T05:13:58.588Z,76.57
2022-11-12T05:16:26.596Z,76.47
2022-11-12T05:18:54.763Z,76.32
2022-11-12T05:21:43.634Z,76.44
2022-11-12T05:24:27.650Z,76.29
2022-11-12T05:27:02.806Z,76.35
2022-11-12T05:29:32.159Z,75.92
2022-11-12T05:32:01.115Z,76.14
2022-11-12T05:34:29.696Z,76.30
2022-11-12T05:36:57.922Z,76.60
2022-11-12T05:39:26.406Z,76.30
2022-11-12T05:42:11.780Z,76.36
2022-11-12T05:44:41.744Z,76.42
2022-11-12T05:47:10.137Z,76.80
2022-11-12T05:49:38.111Z,76.69
2022-11-12T05:52:06.749Z,76.66
2022-11-12T05:54:36.415Z,76.94
2022-11-12T05:57:04.930Z,76.91
2022-11-12T05:59:33.010Z,77.21
2022-11-12T06:02:01.140Z,77.15
2022-11-12T06:04:29.441Z,77.51
2022-11-12T06:06:58.324Z,77.73
2022-11-12T06:09:26.408Z,77.72
2022-11-12T06:11:56.080Z,77.76
2022-11-12T06:14:24.731Z,78.18
2022-11-12T06:16:53.329Z,78.02
2022-11-12T06:19:21.740Z,78.29
2022-11-12T06:21:50.020Z,78.58
2022-11-12T06:24:19.021Z,78.76
2022-11-12T06:26:47.106Z,78.63
2022-11-12T06:29:15.205Z,78.60
2022-11-12T06:31:43.229Z,78.61
2022-11-12T06:34:12.951Z,78.99
2022-11-12T06:36:41.086Z,79.17
2022-11-12T06:39:11.544Z,79.00
2022-11-12T06:41:39.696Z,79.36
2022-11-12T06:44:09.094Z,79.25
2022-11-12T06:46:37.195Z,79.80
2022-11-12T06:49:05.521Z,79.74
2022-11-12T06:51:33.618Z,79.95
2022-11-12T06:54:01.667Z,79.96
2022-11-12T06:56:29.787Z,80.23
2022-11-12T06:58:57.903Z,79.99
2022-11-12T07:01:32.746Z,80.28
2022-11-12T07:04:07.619Z,80.01
2022-11-12T07:06:35.975Z,80.00
2022-11-12T07:09:05.628Z,80.30
2022-11-12T07:11:34.553Z,80.01
2022-11-12T07:14:09.301Z,79.94
2022-11-12T07:16:37.911Z,80.06
2022-11-12T07:19:08.107Z,79.91
2022-11-12T07:21:36.592Z,80.15
2022-11-12T07:24:05.472Z,80.06
2022-11-12T07:26:33.675Z,80.30
2022-11-12T07:29:02.027Z,80.07
2022-11-12T07:31:30.190Z,79.91
2022-11-12T07:33:58.396Z,79.81
2022-11-12T07:36:27.708Z,79.59
2022-11-12T07:38:56.213Z,79.85
2022-11-12T07:41:25.511Z,79.52
2022-11-12T07:43:54.486Z,79.44
2022-11-12T07:46:27.787Z,79.43
2022-11-12T07:48:56.840Z,79.55
2022-11-12T07:51:30.209Z,79.45
2022-11-12T07:54:00.148Z,79.60
2022-11-12T07:56:29.470Z,79.35
2022-11-12T07:58:58.247Z,79.38
2022-11-12T08:01:43.234Z,79.33
2022-11-12T08:04:14.672Z,79.18
2022-11-12T08:06:43.180Z,79.30
2022-11-12T08:09:11.965Z,78.90
2022-11-12T08:11:40.875Z,78.74
2022-11-12T08:14:09.397Z,78.80
2022-11-12T08:16:37.603Z,78.79
2022-11-12T08:19:05.802Z,78.73
2022-11-12T08:21:34.019Z,79.09
2022-11-12T08:24:02.329Z,79.19
2022-11-12T08:26:30.505Z,79.01
2022-11-12T08:29:01.628Z,78.81
2022-11-12T08:31:32.135Z,78.70
2022-11-12T08:34:12.419Z,78.81
2022-11-12T08:36:41.219Z,78.88
2022-11-12T08:39:09.543Z,79.13
2022-11-12T08:41:38.076Z,78.58
2022-11-12T08:44:08.741Z,78.87
2022-11-12T08:46:37.180Z,78.95
2022-11-12T08:49:05.313Z,78.64
2022-11-12T08:51:33.671Z,79.07
2022-11-12T08:54:01.894Z,78.82
2022-11-12T08:56:30.119Z,78.85
2022-11-12T08:58:58.635Z,78.51
2022-11-12T09:01:26.926Z,78.52
2022-11-12T09:03:55.622Z,78.88
2022-11-12T09:06:24.358Z,79.14
2022-11-12T09:08:52.490Z,78.82
2022-11-12T09:11:21.199Z,78.79
2022-11-12T09:13:49.688Z,79.46
2022-11-12T09:16:18.353Z,79.59
2022-11-12T09:18:46.574Z,79.96
2022-11-12T09:21:14.670Z,80.55
2022-11-12T09:23:42.800Z,80.55
2022-11-12T09:26:10.897Z,80.46
2022-11-12T09:28:39.139Z,81.13
2022-11-12T09:31:08.995Z,81.33
2022-11-12T09:33:37.276Z,81.68
2022-11-12T09:36:05.656Z,81.27
2022-11-12T09:38:34.856Z,81.58
2022-11-12T09:41:18.009Z,81.70
2022-11-12T09:43:57.355Z,81.96
2022-11-12T09:46:35.314Z,81.61
2022-11-12T09:49:11.586Z,82.13
2022-11-12T09:51:48.602Z,82.66
2022-11-12T09:54:27.964Z,82.77
2022-11-12T09:56:56.732Z,82.58
2022-11-12T09:59:39.203Z,82.81
2022-11-12T10:02:31.904Z,82.83
2022-11-12T10:05:25.254Z,83.17
2022-11-12T10:07:53.527Z,82.95
2022-11-12T10:10:34.321Z,83.08
2022-11-12T10:13:08.580Z,83.65
2022-11-12T10:16:17.954Z,83.55
2022-11-12T10:18:52.302Z,84.04
2022-11-12T10:21:30.260Z,83.83
2022-11-12T10:24:00.284Z,84.13
2022-11-12T10:26:33.486Z,84.05
2022-11-12T10:29:11.363Z,83.93
2022-11-12T10:31:39.673Z,83.94
2022-11-12T10:34:18.843Z,83.67
2022-11-12T10:36:55.525Z,83.34
2022-11-12T10:39:42.721Z,83.92
2022-11-12T10:42:13.352Z,83.37
2022-11-12T10:44:43.724Z,83.49
2022-11-12T10:47:27.341Z,83.61
2022-11-12T10:50:14.236Z,82.99
2022-11-12T10:53:02.159Z,83.28
2022-11-12T10:55:51.891Z,83.57
2022-11-12T10:58:21.118Z,83.59
2022-11-12T11:01:05.288Z,83.34
2022-11-12T11:03:37.828Z,83.56
2022-11-12T11:06:20.212Z,84.04
2022-11-12T11:08:53.540Z,83.84
2022-11-12T11:11:27.413Z,83.79
2022-11-12T11:13:58.333Z,84.14
2022-11-12T11:16:28.732Z,84.34
2022-11-12T11:19:04.186Z,84.08
2022-11-12T11:21:45.005Z,84.44
2022-11-12T11:24:41.520Z,84.58
2022-11-12T11:27:32.941Z,84.87
2022-11-12T11:30:16.104Z,84.87
2022-11-12T11:33:19.200Z,85.04
2022-11-12T11:35:51.951Z,84.92
2022-11-12T11:38:36.514Z,85.09
2022-11-12T11:41:10.805Z,85.47
2022-11-12T11:43:59.308Z,85.70
2022-11-12T11:46:55.911Z,85.83
2022-11-12T11:49:38.841Z,85.68
2022-11-12T11:52:34.640Z,86.03
2022-11-12T11:55:09.179Z,85.76
2022-11-12T11:58:07.375Z,86.17
2022-11-12T12:00:47.609Z,85.95
2022-11-12T12:03:22.624Z,86.10
2022-11-12T12:05:58.601Z,86.37
2022-11-12T12:08:40.947Z,86.17
2022-11-12T12:11:23.084Z,86.36
2022-11-12T12:14:16.011Z,86.66
2022-11-12T12:16:50.151Z,86.70
2022-11-12T12:19:56.881Z,86.54
2022-11-12T12:22:43.960Z,87.03
2022-11-12T12:25:18.395Z,86.85
2022-11-12T12:28:00.007Z,86.60
2022-11-12T12:30:32.093Z,86.98
2022-11-12T12:33:42.901Z,86.95
2022-11-12T12:36:25.237Z,86.91
2022-11-12T12:39:08.843Z,87.42
2022-11-12T12:41:44.627Z,86.82
2022-11-12T12:44:12.777Z,86.58
2022-11-12T12:46:46.499Z,86.32
2022-11-12T12:49:19.499Z,85.96
2022-11-12T12:51:51.521Z,86.35
2022-11-12T12:54:35.399Z,86.28
2022-11-12T12:57:05.224Z,86.22
2022-11-12T12:59:33.660Z,86.14
2022-11-12T13:02:03.785Z,85.75
2022-11-12T13:04:50.711Z,85.53
2022-11-12T13:07:24.069Z,84.98
2022-11-12T13:09:52.219Z,85.58
2022-11-12T13:12:20.358Z,85.44
2022-11-12T13:15:07.993Z,85.01
2022-11-12T13:17:48.408Z,85.26
2022-11-12T13:20:32.495Z,85.20
2022-11-12T13:23:00.765Z,85.32
2022-11-12T13:25:32.096Z,84.98
2022-11-12T13:28:03.404Z,85.31
2022-11-12T13:30:32.070Z,85.33
2022-11-12T13:33:04.455Z,85.08
2022-11-12T13:35:37.928Z,84.86
2022-11-12T13:38:09.446Z,84.85
2022-11-12T13:40:37.652Z,85.01
2022-11-12T13:43:18.475Z,84.66
2022-11-12T13:45:58.677Z,84.57
2022-11-12T13:48:39.176Z,84.85
2022-11-12T13:51:23.292Z,84.56
2022-11-12T13:53:51.449Z,84.61
2022-11-12T13:56:28.614Z,84.90
2022-11-12T13:59:19.589Z,84.79
2022-11-12T14:01:49.643Z,84.22
2022-11-12T14:04:24.112Z,84.64
2022-11-12T14:06:57.513Z,84.71
2022-11-12T14:09:57.517Z,84.38
2022-11-12T14:12:48.922Z,84.77
2022-11-12T14:15:32.037Z,84.52
2022-11-12T14:18:35.566Z,84.56
2022-11-12T14:21:11.716Z,84.55
2022-11-12T14:23:41.303Z,84.64
2022-11-12T14:26:13.275Z,84.47
2022-11-12T14:28:41.542Z,84.12
2022-11-12T14:31:15.004Z,84.50
2022-11-12T14:33:43.317Z,84.63
2022-11-12T14:36:15.811Z,84.44
2022-11-12T14:38:48.713Z,84.50
2022-11-12T14:41:35.657Z,84.52
2022-11-12T14:44:13.811Z,84.91
2022-11-12T14:46:47.056Z,84.32
2022-11-12T14:49:21.850Z,84.84
2022-11-12T14:51:55.262Z,84.60
2022-11-12T14:54:32.516Z,85.16
2022-11-12T14:57:03.849Z,85.10
2022-11-12T14:59:33.047Z,85.04
2022-11-12T15:05:13.033Z,85.60
2022-11-12T15:07:57.754Z,85.38
2022-11-12T15:10:46.827Z,85.59
2022-11-12T15:13:18.371Z,85.96
2022-11-12T15:16:21.531Z,85.87
2022-11-12T15:19:29.094Z,86.21
2022-11-12T15:22:29.187Z,86.28
2022-11-12T15:25:50.766Z,86.50
2022-11-12T15:28:25.009Z,86.79
2022-11-12T15:31:18.990Z,86.55
2022-11-12T15:33:47.533Z,86.68
2022-11-12T15:36:22.146Z,87.13
2022-11-12T15:38:56.719Z,86.88
2022-11-12T15:41:30.331Z,86.84
2022-11-12T15:43:58.743Z,87.29
2022-11-12T15:46:27.342Z,86.99
2022-11-12T15:49:03.331Z,87.31
2022-11-12T15:51:33.311Z,87.07
2022-11-12T15:54:04.739Z,87.08
2022-11-12T15:56:33.199Z,87.40
2022-11-12T15:59:01.546Z,87.63
2022-11-12T16:01:29.734Z,87.56
2022-11-12T16:03:57.924Z,87.87
2022-11-12T16:06:26.163Z,88.07
2022-11-12T16:08:54.234Z,87.55
2022-11-12T16:11:37.073Z,87.86
2022-11-12T16:14:08.077Z,87.79
2022-11-12T16:16:40.010Z,87.71
2022-11-12T16:19:16.931Z,88.31
2022-11-12T16:21:50.572Z,88.21
2022-11-12T16:24:19.847Z,88.22
2022-11-12T16:26:48.622Z,88.40
2022-11-12T16:29:20.158Z,88.07
2022-11-12T16:31:48.343Z,88.31
2022-11-12T16:34:16.599Z,88.15
2022-11-12T16:36:44.819Z,88.26
2022-11-12T16:39:13.952Z,88.43
2022-11-12T16:41:44.186Z,88.14
2022-11-12T16:44:12.653Z,88.64
2022-11-12T16:46:44.640Z,88.38
2022-11-12T16:49:15.327Z,88.35
2022-11-12T16:51:44.049Z,88.58
2022-11-12T16:54:13.244Z,88.44
2022-11-12T16:56:42.522Z,88.79
2022-11-12T16:59:14.857Z,88.64
2022-11-12T17:01:44.536Z,88.73
2022-11-12T17:04:13.380Z,88.68
2022-11-12T17:06:41.714Z,88.87
2022-11-12T17:09:16.317Z,88.46
2022-11-12T17:11:46.554Z,88.80
2022-11-12T17:14:16.729Z,88.79
2022-11-12T17:16:46.624Z,89.21
2022-11-12T17:19:14.877Z,89.02
2022-11-12T17:21:44.681Z,88.73
2022-11-12T17:24:13.089Z,89.09
2022-11-12T17:26:41.862Z,89.29
2022-11-12T17:29:10.394Z,88.85
2022-11-12T17:31:39.469Z,89.09
2022-11-12T17:34:11.215Z,89.24
2022-11-12T17:36:43.567Z,89.06
2022-11-12T17:39:15.322Z,88.93
2022-11-12T17:41:49.176Z,89.29
2022-11-12T17:44:27.918Z,89.06
2022-11-12T17:46:56.905Z,88.97
2022-11-12T17:49:25.330Z,89.00
2022-11-12T17:51:53.744Z,88.85
2022-11-12T17:54:22.773Z,89.41
2022-11-12T17:56:51.692Z,89.09
2022-11-12T17:59:22.489Z,89.14
2022-11-12T18:01:50.781Z,89.45
2022-11-12T18:04:23.477Z,89.82
2022-11-12T18:06:59.494Z,89.45
2022-11-12T18:09:29.022Z,89.43
2022-11-12T18:11:59.421Z,89.54
2022-11-12T18:14:27.983Z,89.21
2022-11-12T18:17:02.065Z,89.43
2022-11-12T18:19:32.282Z,89.35
2022-11-12T18:22:03.863Z,89.77
2022-11-12T18:24:45.510Z,89.64
2022-11-12T18:27:15.342Z,89.52
2022-11-12T18:29:47.543Z,89.86
2022-11-12T18:32:16.293Z,89.73
2022-11-12T18:34:45.544Z,89.69
2022-11-12T18:37:14.831Z,89.58
2022-11-12T18:39:48.399Z,89.62
2022-11-12T18:42:16.947Z,89.72
2022-11-12T18:44:46.004Z,89.95
2022-11-12T18:47:17.228Z,89.78
2022-11-12T18:49:45.643Z,89.71
2022-11-12T18:52:18.208Z,89.98
2022-11-12T18:54:59.580Z,89.92
2022-11-12T18:57:28.273Z,90.24
2022-11-12T18:59:58.612Z,90.00
2022-11-12T19:02:30.138Z,90.06
2022-11-12T19:05:00.847Z,90.36
2022-11-12T19:07:29.786Z,90.22
2022-11-12T19:10:01.654Z,89.97
2022-11-12T19:12:32.432Z,90.29
2022-11-12T19:15:02.148Z,90.23
2022-11-12T19:17:33.399Z,90.24
2022-11-12T19:20:04.615Z,89.98
2022-11-12T19:22:37.357Z,90.28
2022-11-12T19:25:06.353Z,90.32
2022-11-12T19:27:34.577Z,90.29
2022-11-12T19:30:03.728Z,90.45
2022-11-12T19:32:32.159Z,90.46
2022-11-12T19:35:00.559Z,90.61
2022-11-12T19:37:34.182Z,90.42
2022-11-12T19:40:06.620Z,90.71
2022-11-12T19:42:35.099Z,90.60
2022-11-12T19:45:05.108Z,90.65
2022-11-12T19:47:33.527Z,90.39
2022-11-12T19:50:02.076Z,90.80
2022-11-12T19:52:30.640Z,90.70
2022-11-12T19:55:01.291Z,90.42
2022-11-12T19:57:29.943Z,90.67
2022-11-12T19:59:58.950Z,90.55
2022-11-12T20:02:29.744Z,90.86
2022-11-12T20:04:59.093Z,90.63
2022-11-12T20:07:35.601Z,90.21
2022-11-12T20:10:13.028Z,90.32
2022-11-12T20:12:43.504Z,90.30
2022-11-12T20:15:14.165Z,90.39
2022-11-12T20:17:43.426Z,90.26
2022-11-12T20:20:13.269Z,89.72
2022-11-12T20:22:43.977Z,89.65
2022-11-12T20:25:12.337Z,89.86
2022-11-12T20:27:40.692Z,89.95
2022-11-12T20:30:09.574Z,90.00
2022-11-12T20:32:38.676Z,89.91
2022-11-12T20:35:15.163Z,89.80
2022-11-12T20:37:46.446Z,89.71
2022-11-12T20:40:14.907Z,89.67
2022-11-12T20:42:51.657Z,89.75
2022-11-12T20:45:20.401Z,89.41
2022-11-12T20:47:51.192Z,89.68
2022-11-12T20:50:20.310Z,89.28
2022-11-12T20:53:19.268Z,89.78
2022-11-12T20:55:51.066Z,89.68
2022-11-12T20:58:19.475Z,89.77
2022-11-12T21:00:54.008Z,89.48
2022-11-12T21:03:26.480Z,89.50
2022-11-12T21:06:03.108Z,89.52
2022-11-12T21:08:35.769Z,89.68
2022-11-12T21:11:10.137Z,89.66
2022-11-12T21:13:39.183Z,89.31
2022-11-12T21:16:08.937Z,89.64
2022-11-12T21:18:38.347Z,89.38
2022-11-12T21:21:12.937Z,89.29
2022-11-12T21:23:46.863Z,89.20
2022-11-12T21:26:23.765Z,89.66
2022-11-12T21:28:57.423Z,89.30
2022-11-12T21:31:30.117Z,89.70
2022-11-12T21:34:11.790Z,89.34
2022-11-12T21:36:43.333Z,89.62
2022-11-12T21:39:15.585Z,89.19
2022-11-12T21:42:12.238Z,89.37
2022-11-12T21:44:48.252Z,89.44
2022-11-12T21:47:16.615Z,89.29
2022-11-12T21:49:45.077Z,88.84
2022-11-12T21:52:31.401Z,89.32
2022-11-12T21:55:06.162Z,89.30
2022-11-12T21:57:37.823Z,89.11
2022-11-12T22:00:39.873Z,89.17
2022-11-12T22:02:58.275Z,88.90
2022-11-12T22:05:26.574Z,89.00
2022-11-12T22:07:58.030Z,88.94
2022-11-12T22:10:26.343Z,89.02
2022-11-12T22:13:24.722Z,88.88
2022-11-12T22:15:43.400Z,88.78
2022-11-12T22:18:11.771Z,89.11
2022-11-12T22:20:39.920Z,88.80
2022-11-12T22:23:08.330Z,88.92
2022-11-12T22:25:36.768Z,88.65
2022-11-12T22:28:05.449Z,89.16
2022-11-12T22:30:36.141Z,89.31
2022-11-12T22:33:04.395Z,89.04
2022-11-12T22:35:36.357Z,88.95
2022-11-12T22:38:05.300Z,88.95
2022-11-12T22:40:34.048Z,88.93
2022-11-12T22:43:02.490Z,88.87
2022-11-12T22:45:30.790Z,88.82
2022-11-12T22:47:59.636Z,88.71
2022-11-12T22:50:27.926Z,88.73
2022-11-12T22:52:56.801Z,88.87
2022-11-12T22:55:24.965Z,88.73
2022-11-12T22:57:53.227Z,89.15
2022-11-12T23:00:30.679Z,88.56
2022-11-12T23:02:58.995Z,88.70
2022-11-12T23:05:27.271Z,88.67
2022-11-12T23:07:56.329Z,88.70
2022-11-12T23:10:24.551Z,88.56
2022-11-12T23:12:55.675Z,88.90
2022-11-12T23:15:24.076Z,88.51
2022-11-12T23:17:53.088Z,88.56
2022-11-12T23:20:23.737Z,88.43
2022-11-12T23:22:52.487Z,88.87
2022-11-12T23:25:21.284Z,88.62
2022-11-12T23:27:49.946Z,88.52
2022-11-12T23:30:18.130Z,88.55
2022-11-12T23:32:46.253Z,88.45
2022-11-12T23:35:14.390Z,88.46
2022-11-12T23:37:46.616Z,88.30
2022-11-12T23:40:15.237Z,87.97
2022-11-12T23:42:43.507Z,88.20
2022-11-12T23:45:11.811Z,88.80
2022-11-12T23:47:40.670Z,88.59
2022-11-12T23:50:09.132Z,88.42
2022-11-12T23:52:37.455Z,88.34
2022-11-12T23:55:05.768Z,88.37
2022-11-12T23:57:33.978Z,88.14
